Terminal Aerodrome Forecast
Issued by NWS

Home | Current Version | Previous Version | Text Only | Print | Product List | Glossary On
Versions: 1 2 3 4 5 6 7 8 9 10 11 12 13 14 15 16 17 18 19 20 21
000
FTUS41 KPBZ 251400 AAA
TAFZZV
TAF AMD
KZZV 251432Z 2515/2612 18006KT 2SM BR OVC040
     FM251700 VRB03KT 2SM -SN BR OVC007
     FM251900 VRB03KT 3SM -RASN BR OVC007
     FM260000 06005KT 1SM -SN BR OVC007=

USA.gov is the U.S. government's official web portal to all federal, state and local government web resources and services.